| Record Date MM/DD/YYYY | Record Time HH:MM:SS | Record Julian Date NNN day of the year | Air Temperature Max (Degrees Fahrenheit F) | Time Max Air Temperature HH:MM:SS This is the time of max air temp for the prior hour interval listed for record [Time]. | Air Temperature Min (Degrees Fahrenheit F) | Time Min Air Temperature HH:MM:SS This is the time of min air temp for the prior hour interval listed for record [Time]. | Air Temperature Observed (Degrees Fahrenheit F) This is an instantaneous reading at the record [Time]. | Relative Humidity Max (Percent) | Time Max Relative Humidity HH:MM:SS This is the time of max relative humidity for the prior hour interval listed for record [Time]. | Relative Humidity Min (Percent) | Time Min Relative Humidity HH:MM:SS This is the time of min relative humidity for the prior hour interval listed for record [Time]. | Relative Humidity Observed (Percent) This is an instantaneous reading at the record [Time]. | Precipitation (Inches n.nn) rain fall that occurred during the prior hour interval listed for record [Time]. | Wind Speed (Miles Per Hour) Resultant Speed that occurred during the prior hour interval listed for record [Time]. | Wind Direction (Degrees) Resultant Direction that occurred during the prior hour interval listed for record [Time]. | Solar Radiation (Langley's) that occurred during the prior hour interval listed for record [Time]. | Soil Temperature Average at 2 inch depth (Degrees Fahrenheit F) that occurred during the prior hour interval listed for record [Time]. | Soil Temperature Observed at 2 inch depth (Degrees Fahrenheit F) This is an instantaneous reading at the record [Time]. | Soil Temperature Average at 4 inch depth (Degrees Fahrenheit F) that occurred during the prior hour interval listed for record [Time]. | Soil Temperature Observed at 4 inch depth (Degrees Fahrenheit F) This is an instantaneous reading at the record [Time]. |
|---|---|---|---|---|---|---|---|---|---|---|---|---|---|---|---|---|---|---|---|---|
| 04/30/2026 | 0:00:00 | 120 | 65 | 23:00:03 | 63 | 23:53:01 | 63 | 89 | 23:53:05 | 80 | 23:01:05 | 89.1 | 0.01 | 6.0 | 359 | 0 | 67 | 67 | 69 | 68 |
| 04/30/2026 | 1:00:00 | 120 | 63 | 0:00:01 | 62 | 0:39:02 | 62 | 93 | 0:36:02 | 88 | 0:08:05 | 90.2 | 0.07 | 8.1 | 13 | 0 | 67 | 66 | 68 | 68 |
| 04/30/2026 | 2:00:00 | 120 | 62 | 1:04:03 | 62 | 1:24:05 | 62 | 92 | 1:59:02 | 89 | 1:04:01 | 92.1 | 0 | 6.1 | 21 | 0 | 66 | 66 | 68 | 68 |
| 04/30/2026 | 3:00:00 | 120 | 62 | 2:56:00 | 62 | 2:02:01 | 62 | 93 | 2:42:05 | 91 | 2:54:00 | 91.7 | 0 | 5.2 | 15 | 0 | 66 | 66 | 68 | 67 |
| 04/30/2026 | 4:00:00 | 120 | 62 | 3:05:05 | 61 | 3:59:01 | 61 | 92 | 3:00:04 | 83 | 3:55:04 | 84.4 | 0 | 7.8 | 18 | 0 | 66 | 65 | 67 | 67 |
| 04/30/2026 | 5:00:00 | 120 | 61 | 4:05:02 | 61 | 4:55:02 | 61 | 85 | 4:01:01 | 80 | 4:59:04 | 80.8 | 0 | 9.2 | 21 | 0 | 65 | 65 | 67 | 67 |
| 04/30/2026 | 6:00:00 | 120 | 61 | 5:00:02 | 60 | 5:54:02 | 60 | 82 | 5:03:04 | 78 | 5:57:03 | 78.75 | 0 | 10.4 | 23 | 1 | 65 | 64 | 67 | 66 |
| 04/30/2026 | 7:00:00 | 120 | 60 | 6:00:00 | 59 | 6:37:05 | 59 | 81 | 6:19:01 | 77 | 6:53:02 | 78.21 | 0 | 10.3 | 29 | 8 | 64 | 64 | 66 | 66 |
| 04/30/2026 | 8:00:00 | 120 | 62 | 7:57:04 | 59 | 7:00:00 | 61 | 78 | 7:03:02 | 68 | 7:59:00 | 68.99 | 0 | 10.8 | 41 | 27 | 64 | 64 | 66 | 66 |
| 04/30/2026 | 9:00:00 | 120 | 63 | 8:36:03 | 61 | 8:01:00 | 63 | 74 | 8:02:04 | 65 | 8:55:00 | 65.61 | 0 | 10.4 | 44 | 40 | 65 | 65 | 66 | 66 |
| 04/30/2026 | 10:00:00 | 120 | 65 | 9:59:05 | 62 | 9:01:05 | 65 | 71 | 9:36:03 | 64 | 9:13:00 | 64.97 | 0 | 9.8 | 49 | 48 | 66 | 66 | 66 | 66 |
| 04/30/2026 | 11:00:00 | 120 | 66 | 10:59:03 | 64 | 10:07:02 | 66 | 70 | 10:33:04 | 61 | 10:48:02 | 62.88 | 0 | 9.2 | 49 | 56 | 67 | 68 | 67 | 67 |
| 04/30/2026 | 12:00:00 | 120 | 68 | 11:51:04 | 65 | 11:05:03 | 67 | 68 | 11:38:02 | 56 | 11:59:04 | 59.38 | 0 | 9.4 | 46 | 62 | 69 | 70 | 67 | 68 |
| 04/30/2026 | 13:00:00 | 120 | 68 | 12:32:02 | 67 | 12:05:04 | 68 | 66 | 12:24:00 | 55 | 12:19:02 | 56.33 | 0 | 9.7 | 43 | 58 | 70 | 70 | 68 | 69 |
| 04/30/2026 | 14:00:00 | 120 | 68 | 13:01:04 | 66 | 13:58:00 | 66 | 66 | 13:48:04 | 55 | 13:07:01 | 60.06 | 0 | 9.8 | 26 | 34 | 70 | 70 | 69 | 69 |
| 04/30/2026 | 15:00:00 | 120 | 66 | 14:49:04 | 66 | 14:33:05 | 66 | 66 | 14:37:02 | 57 | 14:52:03 | 61.14 | 0 | 9.4 | 16 | 27 | 69 | 69 | 69 | 69 |
| 04/30/2026 | 16:00:00 | 120 | 66 | 15:00:01 | 66 | 15:21:05 | 66 | 67 | 15:47:05 | 58 | 15:00:04 | 62.07 | 0 | 0.9 | 19 | 19 | 68 | 68 | 69 | 69 |
| 04/30/2026 | 17:00:00 | 120 | 66 | 16:00:02 | 65 | 16:59:01 | 65 | 69 | 16:44:02 | 60 | 16:12:00 | 64.12 | 0 | 5.5 | 20 | 7 | 68 | 67 | 68 | 68 |
| 04/30/2026 | 18:00:00 | 120 | 65 | 17:01:00 | 64 | 17:59:03 | 64 | 73 | 17:58:05 | 63 | 17:02:04 | 71.48 | 0 | 3.9 | 26 | 4 | 67 | 66 | 68 | 68 |
| 04/30/2026 | 19:00:00 | 120 | 64 | 18:05:03 | 63 | 18:51:02 | 63 | 75 | 18:59:05 | 69 | 18:17:01 | 74.83 | 0 | 3.5 | 10 | 1 | 66 | 66 | 67 | 67 |
| 04/30/2026 | 20:00:00 | 120 | 63 | 19:00:00 | 62 | 19:57:01 | 62 | 81 | 19:56:05 | 74 | 19:03:04 | 79.77 | 0 | 3.1 | 14 | 0 | 65 | 65 | 67 | 67 |
| 04/30/2026 | 21:00:00 | 120 | 62 | 20:23:02 | 61 | 20:56:00 | 61 | 80 | 20:03:04 | 73 | 20:32:04 | 75.89 | 0 | 5.0 | 14 | 0 | 65 | 64 | 66 | 66 |
| 04/30/2026 | 22:00:00 | 120 | 61 | 21:13:01 | 61 | 21:58:01 | 61 | 77 | 21:06:00 | 73 | 21:25:05 | 75.02 | 0 | 4.4 | 22 | 0 | 64 | 64 | 66 | 66 |
| 04/30/2026 | 23:00:00 | 120 | 61 | 22:10:03 | 60 | 23:00:00 | 60 | 78 | 22:53:00 | 72 | 22:20:02 | 77.25 | 0 | 5.2 | 11 | 0 | 63 | 63 | 65 | 65 |
| 05/01/2026 | 0:00:00 | 121 | 60 | 23:08:03 | 59 | 23:55:00 | 59 | 78 | 23:02:00 | 73 | 23:59:01 | 74.36 | 0 | 5.5 | 20 | 0 | 63 | 63 | 65 | 65 |
| 05/01/2026 | 1:00:00 | 121 | 59 | 0:00:01 | 58 | 0:44:00 | 59 | 77 | 0:43:03 | 73 | 0:23:03 | 74.95 | 0 | 4.8 | 19 | 0 | 62 | 62 | 65 | 64 |
| 05/01/2026 | 2:00:00 | 121 | 59 | 1:00:01 | 58 | 1:50:01 | 58 | 78 | 1:48:05 | 74 | 1:32:05 | 76.39 | 0 | 4.9 | 19 | 0 | 62 | 62 | 64 | 64 |
| 05/01/2026 | 3:00:00 | 121 | 58 | 2:11:02 | 58 | 2:53:03 | 58 | 78 | 2:23:01 | 74 | 2:11:00 | 77.62 | 0 | 3.8 | 22 | 0 | 61 | 61 | 64 | 64 |
| 05/01/2026 | 4:00:00 | 121 | 58 | 3:43:03 | 57 | 3:35:04 | 58 | 79 | 3:00:04 | 72 | 3:42:05 | 75.36 | 0 | 3.0 | 28 | 0 | 61 | 61 | 63 | 63 |
| 05/01/2026 | 5:00:00 | 121 | 58 | 4:00:02 | 57 | 4:53:04 | 57 | 82 | 4:23:03 | 74 | 4:03:02 | 79 | 0 | 3.8 | 19 | 0 | 61 | 61 | 63 | 63 |
| 05/01/2026 | 6:00:00 | 121 | 57 | 5:00:01 | 56 | 5:24:05 | 57 | 83 | 5:24:00 | 79 | 5:00:00 | 81.1 | 0 | 5.0 | 8 | 0 | 61 | 61 | 63 | 63 |
| 05/01/2026 | 7:00:00 | 121 | 57 | 6:59:02 | 56 | 6:03:03 | 57 | 83 | 6:01:04 | 78 | 6:49:02 | 78.59 | 0 | 5.3 | 17 | 5 | 60 | 60 | 63 | 63 |
| 05/01/2026 | 8:00:00 | 121 | 58 | 7:59:05 | 57 | 7:00:01 | 58 | 81 | 7:00:03 | 75 | 7:51:00 | 77.49 | 0 | 6.2 | 12 | 8 | 61 | 61 | 62 | 62 |
| 05/01/2026 | 9:00:00 | 121 | 59 | 8:58:01 | 58 | 8:00:01 | 59 | 79 | 8:01:04 | 71 | 8:50:02 | 71.67 | 0 | 4.9 | 18 | 11 | 61 | 61 | 62 | 62 |
| 05/01/2026 | 10:00:00 | 121 | 60 | 9:56:00 | 59 | 9:00:01 | 60 | 74 | 9:01:03 | 64 | 9:52:00 | 66.43 | 0 | 6.4 | 32 | 18 | 61 | 61 | 62 | 63 |
| 05/01/2026 | 11:00:00 | 121 | 61 | 10:59:04 | 60 | 10:00:00 | 61 | 71 | 10:00:03 | 59 | 10:57:00 | 64.87 | 0 | 6.5 | 33 | 21 | 62 | 62 | 63 | 63 |
| 05/01/2026 | 12:00:00 | 121 | 61 | 11:59:03 | 61 | 11:27:04 | 61 | 68 | 11:58:00 | 57 | 11:01:05 | 60.83 | 0 | 5.5 | 30 | 16 | 62 | 62 | 63 | 63 |
| 05/01/2026 | 13:00:00 | 121 | 62 | 12:59:02 | 61 | 12:00:01 | 62 | 67 | 12:32:04 | 59 | 12:10:02 | 63.96 | 0 | 6.0 | 32 | 19 | 62 | 63 | 63 | 63 |
| 05/01/2026 | 14:00:00 | 121 | 63 | 13:43:03 | 62 | 13:00:02 | 63 | 68 | 13:16:04 | 56 | 13:51:05 | 59.62 | 0 | 5.7 | 32 | 23 | 63 | 63 | 63 | 63 |
| 05/01/2026 | 15:00:00 | 121 | 64 | 14:31:00 | 63 | 14:03:00 | 64 | 66 | 14:50:00 | 57 | 14:36:04 | 62.73 | 0 | 6.6 | 32 | 32 | 63 | 64 | 64 | 64 |
| 05/01/2026 | 16:00:00 | 121 | 64 | 15:03:02 | 63 | 15:20:02 | 64 | 67 | 15:32:03 | 59 | 15:03:05 | 62.42 | 0 | 6.8 | 40 | 21 | 64 | 64 | 64 | 64 |
| 05/01/2026 | 17:00:00 | 121 | 64 | 16:08:03 | 63 | 16:59:01 | 63 | 70 | 16:54:03 | 62 | 16:02:05 | 68.69 | 0 | 5.1 | 53 | 11 | 64 | 64 | 64 | 64 |
| 05/01/2026 | 18:00:00 | 121 | 63 | 17:05:00 | 62 | 18:00:00 | 62 | 76 | 18:00:00 | 65 | 17:03:04 | 76.34 | 0 | 2.4 | 52 | 4 | 64 | 64 | 64 | 64 |
| 05/01/2026 | 19:00:00 | 121 | 62 | 18:00:00 | 60 | 18:59:00 | 60 | 87 | 18:58:04 | 71 | 18:11:02 | 84.2 | 0 | 1.5 | 341 | 1 | 63 | 63 | 64 | 64 |
| 05/01/2026 | 20:00:00 | 121 | 61 | 19:19:05 | 60 | 19:00:00 | 60 | 84 | 19:00:00 | 70 | 19:50:05 | 70.93 | 0 | 3.1 | 340 | 0 | 63 | 63 | 64 | 64 |
| 05/01/2026 | 21:00:00 | 121 | 60 | 20:00:05 | 59 | 20:59:04 | 59 | 73 | 20:08:00 | 66 | 20:20:04 | 70.29 | 0 | 6.1 | 356 | 0 | 62 | 62 | 64 | 63 |
| 05/01/2026 | 22:00:00 | 121 | 59 | 21:00:00 | 58 | 21:59:05 | 58 | 73 | 21:07:05 | 67 | 21:41:05 | 71.87 | 0 | 5.8 | 352 | 0 | 61 | 61 | 63 | 63 |
| 05/01/2026 | 23:00:00 | 121 | 59 | 22:17:05 | 58 | 22:01:02 | 59 | 72 | 22:05:02 | 62 | 22:53:04 | 62.83 | 0 | 5.8 | 3 | 0 | 61 | 60 | 63 | 62 |
| 05/02/2026 | 0:00:00 | 122 | 59 | 23:10:01 | 58 | 23:59:05 | 58 | 68 | 23:59:04 | 60 | 23:09:05 | 66.21 | 0 | 5.4 | 15 | 0 | 60 | 60 | 62 | 62 |
| 05/02/2026 | 1:00:00 | 122 | 58 | 0:28:02 | 57 | 0:59:04 | 57 | 69 | 0:35:00 | 64 | 0:25:04 | 67.94 | 0 | 3.8 | 19 | 0 | 60 | 59 | 62 | 62 |
| 05/02/2026 | 2:00:00 | 122 | 57 | 1:06:05 | 57 | 1:57:03 | 57 | 70 | 1:08:02 | 65 | 1:36:03 | 68.23 | 0 | 3.6 | 18 | 0 | 59 | 59 | 61 | 61 |
| 05/02/2026 | 3:00:00 | 122 | 57 | 2:03:05 | 54 | 2:59:04 | 54 | 78 | 3:00:00 | 66 | 2:33:05 | 78.11 | 0 | 3.7 | 6 | 0 | 59 | 59 | 61 | 61 |
| 05/02/2026 | 4:00:00 | 122 | 55 | 3:07:04 | 53 | 3:22:00 | 54 | 81 | 3:21:01 | 72 | 3:47:03 | 76.21 | 0 | 4.1 | 359 | 0 | 58 | 58 | 61 | 61 |
| 05/02/2026 | 5:00:00 | 122 | 54 | 4:00:00 | 53 | 4:45:00 | 53 | 79 | 4:03:04 | 74 | 4:36:04 | 75.49 | 0 | 4.0 | 350 | 0 | 58 | 57 | 60 | 60 |
| 05/02/2026 | 6:00:00 | 122 | 53 | 5:08:03 | 52 | 5:43:02 | 52 | 83 | 5:39:04 | 73 | 5:19:04 | 78.36 | 0 | 4.7 | 345 | 2 | 57 | 57 | 60 | 60 |
| 05/02/2026 | 7:00:00 | 122 | 56 | 6:59:00 | 52 | 6:10:02 | 56 | 79 | 6:10:00 | 71 | 6:59:03 | 71.77 | 0 | 5.4 | 347 | 15 | 57 | 57 | 60 | 59 |
| 05/02/2026 | 8:00:00 | 122 | 60 | 7:57:00 | 55 | 7:00:00 | 59 | 74 | 7:04:02 | 60 | 7:58:02 | 65.41 | 0 | 5.1 | 353 | 35 | 58 | 59 | 59 | 60 |
| 05/02/2026 | 9:00:00 | 122 | 63 | 9:00:00 | 59 | 8:00:00 | 63 | 67 | 8:06:02 | 49 | 8:56:03 | 52.15 | 0 | 4.3 | 5 | 52 | 60 | 62 | 60 | 61 |
| 05/02/2026 | 10:00:00 | 122 | 66 | 9:58:05 | 63 | 9:00:00 | 66 | 57 | 9:15:00 | 40 | 9:57:05 | 44.8 | 0 | 4.3 | 9 | 66 | 63 | 65 | 61 | 62 |
| 05/02/2026 | 11:00:00 | 122 | 68 | 10:48:00 | 66 | 10:01:02 | 68 | 52 | 10:22:01 | 34 | 10:54:04 | 39.62 | 0 | 6.4 | 359 | 77 | 66 | 68 | 63 | 64 |
| 05/02/2026 | 12:00:00 | 122 | 70 | 11:54:05 | 68 | 11:00:05 | 70 | 48 | 11:44:00 | 31 | 11:32:00 | 34.54 | 0 | 7.3 | 6 | 83 | 69 | 70 | 65 | 66 |
| 05/02/2026 | 13:00:00 | 122 | 71 | 12:52:05 | 69 | 12:11:04 | 71 | 46 | 12:45:03 | 30 | 12:20:05 | 36.61 | 0 | 7.3 | 359 | 75 | 71 | 73 | 67 | 68 |
| 05/02/2026 | 14:00:00 | 122 | 73 | 13:46:01 | 69 | 13:10:02 | 72 | 49 | 13:37:04 | 31 | 13:16:04 | 37.18 | 0 | 8.0 | 349 | 79 | 73 | 74 | 69 | 69 |
| 05/02/2026 | 15:00:00 | 122 | 73 | 14:17:05 | 72 | 14:52:03 | 73 | 46 | 14:05:00 | 28 | 14:47:03 | 29.94 | 0 | 7.7 | 325 | 77 | 75 | 76 | 70 | 71 |
| 05/02/2026 | 16:00:00 | 122 | 73 | 15:02:04 | 70 | 15:23:00 | 72 | 44 | 15:09:05 | 29 | 15:41:03 | 32.47 | 0 | 8.7 | 319 | 49 | 76 | 76 | 72 | 72 |
| 05/02/2026 | 17:00:00 | 122 | 72 | 16:00:00 | 69 | 16:38:05 | 71 | 43 | 16:25:01 | 32 | 16:00:05 | 36.6 | 0 | 8.1 | 324 | 21 | 75 | 74 | 72 | 72 |
| 05/02/2026 | 18:00:00 | 122 | 71 | 17:00:05 | 69 | 17:59:00 | 69 | 44 | 17:50:04 | 34 | 17:05:05 | 40.3 | 0 | 6.9 | 319 | 20 | 73 | 73 | 72 | 72 |
| 05/02/2026 | 19:00:00 | 122 | 69 | 18:01:00 | 64 | 19:00:00 | 64 | 59 | 18:59:01 | 39 | 18:00:05 | 57.81 | 0 | 3.6 | 326 | 4 | 72 | 70 | 71 | 71 |
| 05/02/2026 | 20:00:00 | 122 | 64 | 19:02:05 | 60 | 19:57:01 | 60 | 73 | 19:55:04 | 50 | 19:02:02 | 67.19 | 0 | 1.7 | 335 | 0 | 69 | 68 | 70 | 70 |
| 05/02/2026 | 21:00:00 | 122 | 60 | 20:22:02 | 58 | 20:56:04 | 58 | 73 | 20:54:05 | 63 | 20:36:05 | 62.83 | 0 | 0.6 | 307 | 0 | 67 | 67 | 69 | 68 |
| 05/02/2026 | 22:00:00 | 122 | 59 | 21:02:05 | 57 | 21:59:04 | 57 | 76 | 21:20:01 | 62 | 21:34:01 | 70.69 | 0 | 0.3 | 277 | 0 | 66 | 65 | 68 | 67 |
| 05/02/2026 | 23:00:00 | 122 | 57 | 22:00:01 | 55 | 22:59:04 | 55 | 79 | 22:59:01 | 67 | 22:15:04 | 76.68 | 0 | 1.1 | 293 | 0 | 64 | 64 | 67 | 66 |
| 05/03/2026 | 0:00:00 | 123 | 55 | 23:10:00 | 53 | 23:58:00 | 53 | 86 | 0:00:00 | 69 | 23:12:02 | 86.4 | 0 | 0.9 | 307 | 0 | 63 | 63 | 66 | 65 |
| 05/03/2026 | 1:00:00 | 123 | 53 | 0:09:02 | 52 | 0:49:03 | 52 | 90 | 0:23:03 | 83 | 0:32:02 | 85.4 | 0 | 0.6 | 296 | 0 | 62 | 62 | 65 | 64 |
| 05/03/2026 | 2:00:00 | 123 | 53 | 1:06:05 | 51 | 1:56:01 | 51 | 90 | 1:38:04 | 84 | 1:06:04 | 86.2 | 0 | 1.0 | 278 | 0 | 61 | 61 | 64 | 64 |
| 05/03/2026 | 3:00:00 | 123 | 55 | 2:28:01 | 51 | 2:05:02 | 54 | 88 | 2:05:00 | 71 | 2:27:05 | 75.3 | 0 | 3.4 | 55 | 0 | 60 | 60 | 63 | 63 |
| 05/03/2026 | 4:00:00 | 123 | 55 | 3:09:03 | 53 | 3:49:01 | 53 | 78 | 3:47:00 | 73 | 3:31:01 | 76 | 0 | 5.2 | 76 | 0 | 59 | 59 | 62 | 62 |
| 05/03/2026 | 5:00:00 | 123 | 53 | 4:01:04 | 52 | 4:57:03 | 52 | 78 | 4:58:03 | 76 | 4:01:03 | 77.2 | 0 | 4.7 | 92 | 0 | 59 | 58 | 62 | 61 |
| 05/03/2026 | 6:00:00 | 123 | 53 | 5:59:03 | 52 | 5:25:03 | 53 | 79 | 5:24:01 | 76 | 5:03:03 | 76.93 | 0 | 4.4 | 85 | 3 | 58 | 58 | 61 | 61 |
| 05/03/2026 | 7:00:00 | 123 | 57 | 6:59:05 | 53 | 6:00:00 | 57 | 77 | 6:00:00 | 64 | 6:59:04 | 65.48 | 0 | 5.5 | 92 | 17 | 58 | 58 | 61 | 60 |
| 05/03/2026 | 8:00:00 | 123 | 61 | 7:58:00 | 57 | 7:00:00 | 61 | 69 | 7:01:01 | 52 | 7:59:04 | 52.5 | 0 | 7.1 | 108 | 35 | 59 | 60 | 61 | 61 |
| 05/03/2026 | 9:00:00 | 123 | 64 | 8:59:04 | 60 | 8:00:01 | 64 | 62 | 8:57:05 | 51 | 8:27:01 | 54.1 | 0 | 7.3 | 130 | 52 | 61 | 63 | 61 | 62 |
| 05/03/2026 | 10:00:00 | 123 | 68 | 9:56:02 | 64 | 9:09:00 | 67 | 63 | 9:47:05 | 49 | 9:54:05 | 51.73 | 0 | 6.8 | 154 | 66 | 64 | 66 | 63 | 63 |
| 05/03/2026 | 11:00:00 | 123 | 71 | 10:58:03 | 67 | 10:00:05 | 71 | 62 | 10:12:04 | 46 | 10:21:03 | 51.05 | 0 | 5.4 | 155 | 77 | 68 | 70 | 64 | 66 |
| 05/03/2026 | 12:00:00 | 123 | 73 | 11:53:04 | 71 | 11:16:05 | 73 | 60 | 11:18:03 | 34 | 11:44:03 | 42.92 | 0 | 5.2 | 195 | 82 | 72 | 74 | 67 | 68 |
| 05/03/2026 | 13:00:00 | 123 | 76 | 12:58:02 | 73 | 12:00:00 | 75 | 56 | 12:05:03 | 37 | 12:59:03 | 39.78 | 0 | 5.3 | 197 | 83 | 75 | 77 | 69 | 71 |
| 05/03/2026 | 14:00:00 | 123 | 77 | 13:55:04 | 74 | 13:07:04 | 76 | 47 | 13:08:00 | 33 | 13:19:04 | 34.96 | 0 | 5.5 | 258 | 79 | 78 | 79 | 72 | 73 |
| 05/03/2026 | 15:00:00 | 123 | 77 | 14:47:00 | 75 | 14:13:01 | 76 | 43 | 14:56:02 | 33 | 14:59:02 | 33.46 | 0 | 5.9 | 270 | 70 | 80 | 81 | 74 | 74 |
| 05/03/2026 | 16:00:00 | 123 | 78 | 15:53:00 | 76 | 15:14:01 | 77 | 43 | 15:18:02 | 33 | 15:46:01 | 36.63 | 0 | 5.5 | 260 | 56 | 81 | 81 | 75 | 76 |
| 05/03/2026 | 17:00:00 | 123 | 78 | 16:50:03 | 76 | 16:31:01 | 77 | 43 | 16:08:05 | 33 | 16:11:00 | 37.09 | 0 | 5.6 | 218 | 39 | 80 | 80 | 76 | 76 |
| 05/03/2026 | 18:00:00 | 123 | 77 | 17:09:05 | 76 | 17:55:00 | 76 | 42 | 17:16:02 | 33 | 17:01:05 | 38.75 | 0 | 4.6 | 231 | 20 | 79 | 78 | 76 | 76 |
| 05/03/2026 | 19:00:00 | 123 | 76 | 18:00:00 | 70 | 18:55:01 | 70 | 54 | 18:53:03 | 36 | 18:10:03 | 51.66 | 0 | 3.4 | 204 | 4 | 77 | 75 | 75 | 75 |
| 05/03/2026 | 20:00:00 | 123 | 70 | 19:00:00 | 65 | 19:59:05 | 65 | 71 | 19:59:02 | 51 | 19:00:03 | 70.72 | 0 | 2.7 | 179 | 0 | 74 | 73 | 74 | 73 |
| 05/03/2026 | 21:00:00 | 123 | 65 | 20:00:01 | 64 | 20:52:04 | 64 | 72 | 20:40:05 | 68 | 20:18:03 | 69.76 | 0 | 4.1 | 155 | 0 | 72 | 71 | 73 | 72 |
| 05/03/2026 | 22:00:00 | 123 | 65 | 21:17:04 | 63 | 21:58:03 | 63 | 72 | 21:45:04 | 68 | 21:16:02 | 71.74 | 0 | 5.1 | 157 | 0 | 70 | 69 | 72 | 71 |
| 05/03/2026 | 23:00:00 | 123 | 65 | 22:56:04 | 63 | 22:00:01 | 65 | 72 | 22:00:00 | 64 | 22:56:02 | 64.39 | 0 | 6.3 | 175 | 0 | 69 | 68 | 70 | 70 |
| 05/04/2026 | 0:00:00 | 124 | 65 | 23:00:01 | 64 | 23:55:05 | 64 | 69 | 23:55:04 | 64 | 23:02:02 | 68.46 | 0 | 8.1 | 184 | 0 | 67 | 67 | 69 | 69 |
| 05/04/2026 | 1:00:00 | 124 | 64 | 0:00:01 | 62 | 0:43:04 | 62 | 73 | 0:54:00 | 68 | 0:00:01 | 73.07 | 0 | 7.1 | 192 | 0 | 66 | 66 | 68 | 68 |
| 05/04/2026 | 2:00:00 | 124 | 63 | 1:01:01 | 61 | 1:58:04 | 61 | 76 | 2:00:00 | 72 | 1:02:01 | 76.45 | 0 | 6.4 | 197 | 0 | 66 | 65 | 68 | 67 |
| 05/04/2026 | 3:00:00 | 124 | 61 | 2:00:01 | 61 | 2:55:05 | 61 | 78 | 2:26:04 | 76 | 2:05:03 | 76.89 | 0 | 6.7 | 195 | 0 | 65 | 64 | 67 | 67 |
| 05/04/2026 | 4:00:00 | 124 | 61 | 3:00:05 | 59 | 3:59:00 | 59 | 80 | 3:51:04 | 77 | 3:07:05 | 79.44 | 0 | 5.1 | 193 | 0 | 64 | 64 | 66 | 66 |
| 05/04/2026 | 5:00:00 | 124 | 59 | 4:01:00 | 59 | 4:59:05 | 59 | 81 | 4:15:01 | 79 | 4:47:01 | 79.96 | 0 | 5.0 | 191 | 0 | 63 | 63 | 66 | 66 |
| 05/04/2026 | 6:00:00 | 124 | 60 | 6:00:00 | 59 | 5:14:03 | 60 | 81 | 5:31:01 | 79 | 5:59:04 | 78.92 | 0 | 5.1 | 197 | 3 | 63 | 63 | 65 | 65 |
| 05/04/2026 | 7:00:00 | 124 | 63 | 6:59:05 | 60 | 6:00:00 | 63 | 79 | 6:09:00 | 73 | 6:58:03 | 74.31 | 0 | 7.0 | 205 | 17 | 63 | 63 | 65 | 65 |
| 05/04/2026 | 8:00:00 | 124 | 67 | 7:56:01 | 63 | 7:00:00 | 66 | 75 | 7:02:02 | 64 | 7:56:03 | 64.76 | 0 | 7.5 | 226 | 32 | 64 | 65 | 65 | 65 |
| 05/04/2026 | 9:00:00 | 124 | 70 | 8:51:04 | 66 | 8:01:02 | 70 | 67 | 8:06:02 | 55 | 8:59:03 | 57.43 | 0 | 8.9 | 229 | 49 | 66 | 67 | 65 | 66 |
| 05/04/2026 | 10:00:00 | 124 | 74 | 9:58:00 | 70 | 9:00:00 | 73 | 59 | 9:01:02 | 47 | 9:58:03 | 48.16 | 0 | 10.1 | 241 | 65 | 69 | 70 | 67 | 67 |
| 05/04/2026 | 11:00:00 | 124 | 77 | 10:57:00 | 73 | 10:00:00 | 76 | 54 | 10:35:03 | 43 | 10:37:03 | 45.06 | 0 | 10.0 | 222 | 76 | 72 | 74 | 68 | 69 |
| 05/04/2026 | 12:00:00 | 124 | 78 | 11:43:01 | 75 | 11:20:01 | 77 | 50 | 11:03:03 | 36 | 11:39:02 | 40.25 | 0 | 10.7 | 220 | 79 | 76 | 77 | 71 | 72 |
| 05/04/2026 | 13:00:00 | 124 | 79 | 12:40:05 | 77 | 12:17:03 | 78 | 45 | 12:06:01 | 37 | 12:57:02 | 39.08 | 0 | 11.9 | 206 | 82 | 78 | 79 | 73 | 73 |
| 05/04/2026 | 14:00:00 | 124 | 79 | 14:00:00 | 77 | 13:19:04 | 79 | 43 | 13:46:00 | 36 | 13:27:04 | 40.57 | 0 | 13.0 | 198 | 76 | 80 | 81 | 74 | 75 |
| 05/04/2026 | 15:00:00 | 124 | 80 | 14:00:04 | 78 | 14:11:05 | 78 | 43 | 14:12:04 | 36 | 14:28:03 | 39.16 | 0 | 13.2 | 203 | 69 | 81 | 81 | 76 | 76 |
| 05/04/2026 | 16:00:00 | 124 | 79 | 15:19:02 | 78 | 15:04:00 | 79 | 43 | 15:08:01 | 37 | 15:01:01 | 39.91 | 0 | 12.9 | 205 | 56 | 81 | 81 | 77 | 77 |
| 05/04/2026 | 17:00:00 | 124 | 79 | 16:02:05 | 77 | 16:43:01 | 77 | 44 | 16:46:03 | 39 | 16:07:03 | 41.92 | 0 | 12.3 | 202 | 38 | 81 | 80 | 77 | 77 |
| 05/04/2026 | 18:00:00 | 124 | 77 | 17:04:04 | 75 | 17:59:05 | 75 | 47 | 17:59:05 | 41 | 17:01:00 | 46.97 | 0 | 11.7 | 189 | 16 | 79 | 78 | 77 | 77 |
| 05/04/2026 | 19:00:00 | 124 | 75 | 18:05:03 | 72 | 18:59:00 | 72 | 52 | 18:54:04 | 43 | 18:19:04 | 51.15 | 0 | 9.0 | 190 | 4 | 77 | 76 | 76 | 76 |
| 05/04/2026 | 20:00:00 | 124 | 72 | 19:01:01 | 69 | 19:59:05 | 69 | 56 | 19:50:03 | 50 | 19:03:03 | 54.88 | 0 | 8.1 | 174 | 0 | 75 | 74 | 75 | 74 |
| 05/04/2026 | 21:00:00 | 124 | 69 | 20:00:02 | 68 | 20:16:03 | 68 | 59 | 20:19:01 | 54 | 20:30:04 | 55.65 | 0 | 7.2 | 168 | 0 | 73 | 72 | 74 | 73 |
| 05/04/2026 | 22:00:00 | 124 | 69 | 21:03:01 | 67 | 21:26:03 | 68 | 58 | 21:31:05 | 54 | 21:02:04 | 56.56 | 0 | 9.0 | 176 | 0 | 71 | 71 | 73 | 72 |
| 05/04/2026 | 23:00:00 | 124 | 68 | 22:03:01 | 67 | 22:56:00 | 67 | 61 | 22:55:05 | 56 | 22:02:00 | 60.34 | 0 | 9.2 | 178 | 0 | 70 | 70 | 72 | 71 |
| 05/05/2026 | 0:00:00 | 125 | 67 | 23:02:04 | 65 | 23:54:05 | 66 | 66 | 23:54:04 | 60 | 23:01:03 | 65.01 | 0 | 8.6 | 179 | 0 | 69 | 69 | 71 | 71 |
| 05/05/2026 | 1:00:00 | 125 | 66 | 0:05:00 | 65 | 0:59:02 | 65 | 68 | 0:59:03 | 65 | 0:03:05 | 67.41 | 0 | 8.6 | 185 | 0 | 68 | 68 | 70 | 70 |
| 05/05/2026 | 2:00:00 | 125 | 65 | 1:02:00 | 63 | 1:59:05 | 63 | 71 | 1:59:05 | 67 | 1:01:05 | 71.07 | 0 | 8.0 | 173 | 0 | 68 | 67 | 70 | 69 |
| 05/05/2026 | 3:00:00 | 125 | 63 | 2:01:00 | 63 | 2:51:05 | 63 | 74 | 2:51:05 | 71 | 2:00:03 | 73.62 | 0 | 8.5 | 169 | 0 | 67 | 67 | 69 | 69 |
| 05/05/2026 | 4:00:00 | 125 | 63 | 3:13:02 | 62 | 3:48:03 | 62 | 75 | 3:57:04 | 73 | 3:00:04 | 75.3 | 0 | 1.0 | 171 | 0 | 66 | 66 | 68 | 68 |
| 05/05/2026 | 5:00:00 | 125 | 62 | 4:00:05 | 62 | 4:57:05 | 62 | 77 | 4:46:04 | 75 | 4:01:04 | 77.14 | 0 | 10.1 | 170 | 0 | 66 | 66 | 68 | 68 |
| 05/05/2026 | 6:00:00 | 125 | 62 | 5:59:04 | 61 | 5:29:05 | 62 | 79 | 5:37:00 | 77 | 6:00:00 | 76.74 | 0 | 10.3 | 174 | 2 | 65 | 65 | 67 | 67 |
| 05/05/2026 | 7:00:00 | 125 | 65 | 6:59:05 | 62 | 6:00:00 | 65 | 77 | 6:01:05 | 74 | 6:41:01 | 75.2 | 0 | 11.0 | 177 | 14 | 65 | 66 | 67 | 67 |
| 05/05/2026 | 8:00:00 | 125 | 66 | 7:57:00 | 65 | 7:00:00 | 66 | 76 | 7:24:05 | 74 | 7:18:01 | 74.86 | 0 | 11.2 | 189 | 10 | 66 | 66 | 67 | 67 |
| 05/05/2026 | 9:00:00 | 125 | 68 | 8:59:04 | 66 | 8:00:04 | 68 | 77 | 8:26:03 | 74 | 8:58:03 | 75.06 | 0 | 11.7 | 186 | 10 | 67 | 67 | 67 | 67 |
| 05/05/2026 | 10:00:00 | 125 | 71 | 9:56:05 | 68 | 9:00:00 | 71 | 75 | 9:00:02 | 72 | 9:55:02 | 72.7 | 0 | 13.5 | 184 | 25 | 67 | 68 | 67 | 68 |
| 05/05/2026 | 11:00:00 | 125 | 71 | 10:18:02 | 70 | 10:01:00 | 71 | 76 | 10:53:02 | 72 | 10:03:00 | 74.73 | 0 | 13.8 | 181 | 18 | 69 | 69 | 68 | 68 |
| 05/05/2026 | 12:00:00 | 125 | 75 | 12:00:00 | 71 | 11:01:04 | 75 | 76 | 11:00:05 | 70 | 11:58:04 | 71.63 | 0 | 14.3 | 180 | 31 | 70 | 70 | 69 | 69 |
| 05/05/2026 | 13:00:00 | 125 | 76 | 12:06:05 | 75 | 12:31:01 | 76 | 71 | 12:00:00 | 67 | 12:07:03 | 69.21 | 0 | 15.6 | 181 | 37 | 71 | 72 | 69 | 70 |
| 05/05/2026 | 14:00:00 | 125 | 76 | 13:19:05 | 73 | 13:59:05 | 73 | 78 | 13:59:01 | 68 | 13:00:04 | 77.07 | 0 | 14.8 | 183 | 21 | 72 | 73 | 70 | 71 |
| 05/05/2026 | 15:00:00 | 125 | 73 | 14:04:01 | 70 | 14:21:00 | 73 | 91 | 14:40:04 | 77 | 14:00:00 | 85 | 0 | 11.8 | 179 | 19 | 73 | 72 | 71 | 71 |
| 05/05/2026 | 16:00:00 | 125 | 76 | 15:58:04 | 73 | 15:00:01 | 76 | 86 | 15:01:01 | 73 | 15:59:05 | 73.66 | 0 | 12.2 | 158 | 23 | 72 | 73 | 71 | 71 |
| 05/05/2026 | 17:00:00 | 125 | 76 | 16:15:04 | 76 | 16:43:03 | 76 | 76 | 16:49:01 | 72 | 16:12:03 | 73.6 | 0 | 11.5 | 161 | 11 | 73 | 73 | 71 | 71 |
| 05/05/2026 | 18:00:00 | 125 | 77 | 17:36:05 | 76 | 17:07:03 | 76 | 74 | 17:07:00 | 72 | 17:36:01 | 73.54 | 0 | 12.5 | 176 | 5 | 73 | 73 | 71 | 72 |
| 05/05/2026 | 19:00:00 | 125 | 76 | 18:10:03 | 76 | 18:44:00 | 76 | 75 | 18:43:03 | 73 | 18:09:04 | 74.71 | 0 | 12.9 | 176 | 2 | 72 | 72 | 71 | 71 |
| 05/05/2026 | 20:00:00 | 125 | 76 | 19:31:01 | 76 | 19:58:02 | 76 | 76 | 19:56:05 | 75 | 19:11:01 | 75.82 | 0 | 12.2 | 182 | 0 | 72 | 72 | 71 | 71 |
| 05/05/2026 | 21:00:00 | 125 | 76 | 20:00:01 | 75 | 20:33:00 | 75 | 78 | 20:50:00 | 76 | 20:05:01 | 77.56 | 0 | 11.7 | 179 | 0 | 72 | 72 | 71 | 71 |
| 05/05/2026 | 22:00:00 | 125 | 75 | 21:14:05 | 75 | 21:58:00 | 75 | 80 | 21:58:01 | 77 | 21:01:03 | 79.38 | 0 | 10.4 | 186 | 0 | 72 | 71 | 71 | 71 |
| 05/05/2026 | 23:00:00 | 125 | 75 | 22:19:03 | 74 | 22:32:00 | 75 | 81 | 22:31:05 | 79 | 22:01:05 | 80.5 | 0 | 11.6 | 182 | 0 | 71 | 71 | 71 | 71 |
| 05/06/2026 | 0:00:00 | 126 | 75 | 23:01:01 | 74 | 23:29:02 | 75 | 83 | 23:50:05 | 81 | 23:00:02 | 82.6 | 0 | 12.3 | 183 | 0 | 71 | 71 | 71 | 71 |
| 05/06/2026 | 1:00:00 | 126 | 75 | 0:48:05 | 74 | 0:04:00 | 75 | 84 | 0:58:01 | 83 | 0:00:03 | 83.5 | 0 | 10.9 | 193 | 0 | 71 | 71 | 71 | 71 |
| 05/06/2026 | 2:00:00 | 126 | 75 | 1:06:05 | 74 | 1:59:02 | 74 | 85 | 1:59:03 | 83 | 1:07:04 | 85.3 | 0 | 11.6 | 200 | 0 | 71 | 71 | 71 | 71 |
| 05/06/2026 | 3:00:00 | 126 | 74 | 2:05:05 | 74 | 2:57:01 | 74 | 86 | 2:56:04 | 85 | 2:05:03 | 85.8 | 0 | 11.4 | 200 | 0 | 71 | 71 | 71 | 71 |
| 05/06/2026 | 4:00:00 | 126 | 74 | 3:03:01 | 73 | 3:56:03 | 73 | 87 | 3:56:03 | 86 | 3:02:05 | 86.8 | 0 | 8.7 | 204 | 0 | 71 | 71 | 71 | 71 |
| 05/06/2026 | 5:00:00 | 126 | 74 | 4:50:00 | 73 | 4:24:02 | 74 | 88 | 4:23:04 | 86 | 4:50:02 | 86.5 | 0 | 7.1 | 206 | 0 | 71 | 71 | 71 | 71 |
| 05/06/2026 | 6:00:00 | 126 | 74 | 5:34:02 | 73 | 5:29:01 | 73 | 87 | 6:00:00 | 86 | 5:11:00 | 87.4 | 0 | 8.9 | 200 | 0 | 71 | 71 | 71 | 71 |
| 05/06/2026 | 7:00:00 | 126 | 74 | 6:16:02 | 64 | 7:00:00 | 64 | 96 | 6:57:03 | 78 | 6:22:00 | 95.5 | 0.04 | 6.8 | 315 | 2 | 71 | 71 | 71 | 71 |
| 05/06/2026 | 8:00:00 | 126 | 64 | 7:01:05 | 62 | 7:56:03 | 62 | 96 | 7:06:04 | 93 | 7:49:02 | 94.1 | 0.01 | 6.8 | 0 | 4 | 70 | 70 | 70 | 70 |
| 05/06/2026 | 9:00:00 | 126 | 62 | 8:01:00 | 59 | 8:59:03 | 59 | 95 | 8:38:04 | 92 | 8:59:03 | 92 | 0 | 9.4 | 349 | 6 | 69 | 69 | 70 | 70 |
| 05/06/2026 | 10:00:00 | 126 | 59 | 9:03:03 | 58 | 9:35:03 | 59 | 94 | 9:34:00 | 91 | 9:54:02 | 92.6 | 0 | 9.9 | 359 | 12 | 68 | 68 | 69 | 69 |
| 05/06/2026 | 11:00:00 | 126 | 59 | 11:00:00 | 58 | 10:46:05 | 59 | 94 | 10:15:05 | 90 | 10:56:00 | 91.9 | 0 | 10.2 | 351 | 18 | 67 | 67 | 69 | 68 |
| 05/06/2026 | 12:00:00 | 126 | 59 | 11:51:02 | 58 | 11:15:03 | 58 | 93 | 11:08:01 | 90 | 11:30:01 | 90.3 | 0 | 10.0 | 358 | 23 | 67 | 67 | 68 | 68 |
| 05/06/2026 | 13:00:00 | 126 | 60 | 12:43:04 | 58 | 12:00:01 | 59 | 92 | 12:16:01 | 89 | 12:54:01 | 90.8 | 0 | 8.7 | 4 | 18 | 67 | 67 | 68 | 68 |
| 05/06/2026 | 14:00:00 | 126 | 60 | 13:41:05 | 58 | 13:16:05 | 59 | 92 | 13:19:03 | 87 | 13:43:00 | 88.6 | 0 | 10.2 | 349 | 25 | 67 | 67 | 68 | 68 |
| 05/06/2026 | 15:00:00 | 126 | 59 | 14:01:03 | 56 | 14:24:03 | 57 | 93 | 14:27:00 | 88 | 14:04:00 | 90.2 | 0 | 12.7 | 359 | 12 | 67 | 66 | 68 | 67 |
| 05/06/2026 | 16:00:00 | 126 | 58 | 15:31:01 | 57 | 15:00:01 | 58 | 91 | 15:01:02 | 85 | 15:36:04 | 86.2 | 0 | 9.1 | 30 | 12 | 66 | 66 | 67 | 67 |
| 05/06/2026 | 17:00:00 | 126 | 58 | 16:17:01 | 58 | 16:00:04 | 58 | 87 | 16:11:02 | 84 | 16:21:02 | 85.8 | 0 | 7.1 | 23 | 7 | 65 | 65 | 67 | 67 |
| 05/06/2026 | 18:00:00 | 126 | 59 | 17:39:02 | 58 | 18:00:00 | 58 | 89 | 17:57:03 | 85 | 17:03:05 | 88 | 0 | 8.1 | 9 | 6 | 65 | 65 | 66 | 66 |
| 05/06/2026 | 19:00:00 | 126 | 58 | 18:01:03 | 57 | 18:57:02 | 58 | 90 | 18:07:04 | 88 | 18:42:05 | 88.2 | 0 | 1.0 | 3 | 1 | 65 | 64 | 66 | 66 |
| 05/06/2026 | 20:00:00 | 126 | 58 | 19:00:01 | 57 | 19:32:03 | 57 | 89 | 19:59:01 | 88 | 19:07:00 | 88.5 | 0 | 10.1 | 8 | 0 | 64 | 64 | 66 | 66 |
| 05/06/2026 | 21:00:00 | 126 | 57 | 20:00:02 | 57 | 20:42:05 | 57 | 90 | 20:35:00 | 88 | 20:10:05 | 89.1 | 0 | 9.4 | 9 | 0 | 63 | 63 | 65 | 65 |
| 05/06/2026 | 22:00:00 | 126 | 57 | 21:01:00 | 56 | 21:59:04 | 56 | 91 | 21:51:00 | 89 | 21:09:01 | 90.5 | 0 | 9.0 | 8 | 0 | 63 | 63 | 65 | 65 |
| 05/06/2026 | 23:00:00 | 126 | 56 | 22:01:04 | 56 | 22:41:00 | 56 | 92 | 22:48:00 | 91 | 22:00:00 | 91.1 | 0 | 8.3 | 1 | 0 | 62 | 62 | 64 | 64 |
| 05/07/2026 | 0:00:00 | 127 | 56 | 23:58:03 | 56 | 23:12:03 | 56 | 92 | 23:26:05 | 91 | 23:01:05 | 91.3 | 0 | 7.8 | 17 | 0 | 62 | 62 | 64 | 64 |
| 05/07/2026 | 1:00:00 | 127 | 56 | 0:00:03 | 56 | 0:56:02 | 56 | 94 | 0:59:00 | 91 | 0:03:04 | 93.4 | 0 | 8.0 | 12 | 0 | 62 | 62 | 64 | 64 |
| 05/07/2026 | 2:00:00 | 127 | 56 | 1:03:05 | 55 | 1:56:01 | 55 | 96 | 1:53:03 | 92 | 1:20:04 | 95.5 | 0.01 | 8.0 | 359 | 0 | 62 | 61 | 64 | 63 |
| Average | 65.26 | 63.53 | 64.39 | 73.49 | 65.82 | 69.39 | 0 | 7.28 | 17.29 | 67.07 | 67.11 | 67.37 | 67.37 | |||||||
| Total | 0.14 |